Time;durP1;ratioP1;P1;durP2;ratioP2;P2;SDS_P1;SDS_P2;PMS_P1;PMS_P2;Temp;Humidity;BMP_temperature;BMP_pressure;BME280_temperature;BME280_humidity;BME280_pressure;Samples;Min_cycle;Max_cycle;Signal;HPM_P1;HPM_P2
2022/06/19 00:01:19;;;;;;;133.65;120.97;;;18.10;68.30;;;;;;5014163;28;20543;-75
2022/06/19 00:03:48;;;;;;;134.00;121.45;;;18.00;68.60;;;;;;5014016;28;20065;-75
2022/06/19 00:06:16;;;;;;;134.57;122.45;;;18.00;68.80;;;;;;5012620;28;20042;-75
2022/06/19 00:08:45;;;;;;;139.68;126.80;;;17.90;68.80;;;;;;5011368;28;20050;-76
2022/06/19 00:11:14;;;;;;;134.55;122.22;;;18.00;69.00;;;;;;4993742;28;20055;-75
2022/06/19 00:13:41;;;;;;;134.38;121.97;;;17.90;69.00;;;;;;4992729;28;20491;-75
2022/06/19 00:16:08;;;;;;;135.98;123.43;;;17.90;69.20;;;;;;4992851;28;20050;-75
2022/06/19 00:18:38;;;;;;;134.32;122.03;;;17.90;69.50;;;;;;4992716;28;20061;-75
2022/06/19 00:21:05;;;;;;;133.52;121.18;;;17.90;69.60;;;;;;4992905;28;20130;-75
2022/06/19 00:23:32;;;;;;;134.60;122.22;;;17.90;69.80;;;;;;4994262;28;20071;-75
2022/06/19 00:26:01;;;;;;;134.02;121.55;;;17.90;69.90;;;;;;4992887;28;20063;-76
2022/06/19 00:28:28;;;;;;;134.90;122.68;;;17.90;70.00;;;;;;4992465;28;20053;-75
2022/06/19 00:30:55;;;;;;;134.18;121.95;;;17.90;70.20;;;;;;5009007;28;20145;-75
2022/06/19 00:33:22;;;;;;;134.65;122.05;;;17.90;70.30;;;;;;4993536;28;20138;-75
2022/06/19 00:35:49;;;;;;;134.50;122.07;;;17.90;70.50;;;;;;4993660;28;20049;-75
2022/06/19 00:38:15;;;;;;;132.52;120.28;;;17.90;70.50;;;;;;4992499;28;20047;-75
2022/06/19 00:40:42;;;;;;;135.25;123.00;;;18.00;70.70;;;;;;4974572;28;20075;-75
2022/06/19 00:43:11;;;;;;;139.18;126.47;;;17.90;70.70;;;;;;4990438;28;20126;-75
2022/06/19 00:45:40;;;;;;;137.40;124.80;;;18.00;70.90;;;;;;4974095;28;20055;-75
2022/06/19 00:48:12;;;;;;;134.02;121.55;;;18.00;70.90;;;;;;4990900;28;20470;-75
2022/06/19 00:50:40;;;;;;;134.95;122.75;;;18.00;71.20;;;;;;4990643;28;20516;-75
2022/06/19 00:53:11;;;;;;;133.88;121.28;;;17.90;71.10;;;;;;4990628;28;20075;-75
2022/06/19 00:55:41;;;;;;;133.38;120.85;;;17.90;71.10;;;;;;4991901;28;20141;-75
2022/06/19 00:58:14;;;;;;;132.65;120.57;;;17.90;71.00;;;;;;5007940;28;20050;-75
2022/06/19 01:00:42;;;;;;;133.18;121.22;;;17.90;71.00;;;;;;4993393;28;20190;-75
2022/06/19 01:03:18;;;;;;;132.02;119.90;;;17.90;70.80;;;;;;4993643;28;20059;-75
2022/06/19 01:05:48;;;;;;;132.98;120.75;;;17.90;70.70;;;;;;4993773;28;20055;-75
2022/06/19 01:08:15;;;;;;;131.57;119.70;;;17.90;70.70;;;;;;4975304;28;20082;-75
2022/06/19 01:10:45;;;;;;;132.73;120.78;;;17.80;70.50;;;;;;4992316;28;20768;-75
2022/06/19 01:13:15;;;;;;;130.98;119.20;;;17.80;70.30;;;;;;4993363;28;20061;-75
2022/06/19 01:15:42;;;;;;;133.65;121.65;;;17.70;70.30;;;;;;4992177;28;20053;-75
2022/06/19 01:18:12;;;;;;;132.82;120.60;;;17.70;70.20;;;;;;4995393;28;20046;-75
2022/06/19 01:20:41;;;;;;;135.35;122.43;;;17.70;70.30;;;;;;5011555;28;20046;-75
2022/06/19 01:23:14;;;;;;;131.27;119.15;;;17.70;70.20;;;;;;5011581;28;20133;-74
2022/06/19 01:25:44;;;;;;;133.25;121.40;;;17.70;70.40;;;;;;5013000;28;20133;-75
2022/06/19 01:31:00;;;;;;;133.80;121.40;;;17.70;70.50;;;;;;5027846;28;20197;-75
2022/06/19 01:33:32;;;;;;;132.27;120.35;;;17.70;70.30;;;;;;5011624;28;20487;-75
2022/06/19 01:36:02;;;;;;;132.43;120.78;;;17.70;69.50;;;;;;5011284;28;20506;-75
2022/06/19 01:38:31;;;;;;;131.05;119.47;;;17.70;69.00;;;;;;5012270;28;20051;-75
2022/06/19 01:41:03;;;;;;;131.85;119.90;;;17.60;68.60;;;;;;5012367;28;20101;-76
2022/06/19 01:43:30;;;;;;;130.98;119.57;;;17.60;68.50;;;;;;5012220;28;20062;-75
2022/06/19 01:45:57;;;;;;;131.70;120.00;;;17.50;68.80;;;;;;5011122;28;20137;-75
2022/06/19 01:48:31;;;;;;;130.98;119.15;;;17.40;68.70;;;;;;5012092;28;20505;-75
2022/06/19 01:50:59;;;;;;;134.85;122.95;;;17.30;68.20;;;;;;5011067;28;20048;-75
2022/06/19 01:53:35;;;;;;;129.63;118.25;;;17.20;68.50;;;;;;5008143;28;20077;-75
2022/06/19 01:56:04;;;;;;;130.88;118.78;;;17.20;68.50;;;;;;5012698;28;20138;-75
2022/06/19 01:58:33;;;;;;;132.20;120.47;;;17.10;68.30;;;;;;5010207;28;20055;-75
2022/06/19 02:01:03;;;;;;;129.60;117.90;;;17.10;68.30;;;;;;5011098;28;20078;-75
2022/06/19 02:03:38;;;;;;;130.60;119.07;;;17.10;68.30;;;;;;5012235;28;20056;-75
2022/06/19 02:06:08;;;;;;;130.75;118.78;;;17.00;68.40;;;;;;5010833;28;20930;-75
2022/06/19 02:08:35;;;;;;;129.13;117.65;;;17.00;68.80;;;;;;5010390;28;20047;-75
2022/06/19 02:11:05;;;;;;;130.82;119.30;;;16.90;68.90;;;;;;5012256;28;20054;-75
2022/06/19 02:13:34;;;;;;;130.00;118.38;;;16.90;69.20;;;;;;5012464;28;20469;-75
2022/06/19 02:16:05;;;;;;;132.70;120.80;;;16.90;69.30;;;;;;5014072;28;20057;-76
2022/06/19 02:18:36;;;;;;;130.80;118.85;;;16.90;69.60;;;;;;5013893;28;20125;-76
2022/06/19 02:21:05;;;;;;;130.00;118.32;;;16.90;69.80;;;;;;5015571;28;20061;-75
2022/06/19 02:23:38;;;;;;;129.98;118.15;;;16.90;70.00;;;;;;5015771;28;20058;-76
2022/06/19 02:26:09;;;;;;;130.75;118.45;;;16.90;70.20;;;;;;5014136;28;20109;-75
2022/06/19 02:28:38;;;;;;;129.85;117.82;;;16.80;70.30;;;;;;4995889;28;20141;-75
2022/06/19 02:31:07;;;;;;;130.82;119.00;;;16.90;70.80;;;;;;4994621;28;20185;-75
2022/06/19 02:33:39;;;;;;;129.98;118.28;;;16.90;70.90;;;;;;4994943;28;20500;-75
2022/06/19 02:36:34;;;;;;;130.35;118.32;;;16.90;71.00;;;;;;4994524;28;20520;-75
2022/06/19 02:39:15;;;;;;;131.07;118.82;;;16.90;71.10;;;;;;4994390;28;20055;-75
2022/06/19 02:42:01;;;;;;;132.38;120.18;;;16.90;71.30;;;;;;4994572;28;20066;-75
2022/06/19 02:44:34;;;;;;;132.50;119.72;;;16.90;71.70;;;;;;4994912;28;20054;-75
2022/06/19 02:47:01;;;;;;;133.00;120.85;;;16.90;71.90;;;;;;4994359;28;20130;-75
2022/06/19 02:49:28;;;;;;;131.50;119.40;;;16.90;71.90;;;;;;4995748;28;20063;-75
2022/06/19 02:51:55;;;;;;;132.02;120.13;;;16.80;72.00;;;;;;4993658;28;20143;-75
2022/06/19 02:54:21;;;;;;;133.07;120.80;;;16.80;72.40;;;;;;4994054;28;20121;-75
2022/06/19 02:56:50;;;;;;;132.93;120.57;;;16.70;72.40;;;;;;4995497;28;20142;-75
2022/06/19 02:59:17;;;;;;;132.90;120.22;;;16.70;72.30;;;;;;4993315;28;20495;-75
2022/06/19 03:01:44;;;;;;;132.15;119.55;;;16.70;72.40;;;;;;4976883;28;20137;-76
2022/06/19 03:04:17;;;;;;;132.95;120.65;;;16.70;72.40;;;;;;4995373;28;20517;-76
2022/06/19 03:06:44;;;;;;;130.13;118.25;;;16.70;72.30;;;;;;4994130;28;20043;-75
2022/06/19 03:09:10;;;;;;;131.45;119.22;;;16.70;72.10;;;;;;4993499;28;20061;-75
2022/06/19 03:11:37;;;;;;;131.73;119.40;;;16.70;72.20;;;;;;4977408;28;20039;-75
2022/06/19 03:14:06;;;;;;;132.35;120.13;;;16.70;72.30;;;;;;4995475;28;20054;-76
2022/06/19 03:16:33;;;;;;;131.00;118.65;;;16.80;72.60;;;;;;4993802;28;20078;-75
2022/06/19 03:19:00;;;;;;;131.55;118.97;;;16.80;72.70;;;;;;4994757;28;20062;-75
2022/06/19 03:21:27;;;;;;;132.57;119.68;;;16.80;72.90;;;;;;4995105;28;20055;-75
2022/06/19 03:23:54;;;;;;;134.60;121.60;;;16.80;73.10;;;;;;4993807;28;20059;-75
2022/06/19 03:26:21;;;;;;;131.90;119.75;;;16.80;73.20;;;;;;4993502;28;20130;-75
2022/06/19 03:28:48;;;;;;;132.05;119.95;;;16.80;73.40;;;;;;4977235;28;20065;-75
2022/06/19 03:31:27;;;;;;;132.00;119.50;;;16.80;73.70;;;;;;4994586;28;20153;-75
2022/06/19 03:33:54;;;;;;;130.55;117.80;;;16.80;73.70;;;;;;4995250;28;20055;-75
2022/06/19 03:36:21;;;;;;;130.23;117.63;;;16.80;74.40;;;;;;4993169;28;20052;-75
2022/06/19 03:38:48;;;;;;;128.23;115.78;;;16.80;74.40;;;;;;5009543;28;20051;-75
2022/06/19 03:41:15;;;;;;;128.15;116.03;;;16.70;74.40;;;;;;4977200;28;20046;-76
2022/06/19 03:43:43;;;;;;;129.27;116.35;;;16.70;75.00;;;;;;4993262;28;20134;-75
2022/06/19 03:46:13;;;;;;;127.03;114.88;;;16.60;74.70;;;;;;4993523;28;20537;-75
2022/06/19 03:48:43;;;;;;;127.55;115.22;;;16.60;75.00;;;;;;4994126;28;20138;-75
2022/06/19 03:51:11;;;;;;;126.82;114.90;;;16.50;75.20;;;;;;4993670;28;20047;-75
2022/06/19 03:53:38;;;;;;;128.32;115.60;;;16.50;75.40;;;;;;4993723;28;20058;-75
2022/06/19 03:56:07;;;;;;;125.70;113.63;;;16.40;75.50;;;;;;4993719;28;20057;-75
2022/06/19 03:58:46;;;;;;;127.40;115.10;;;16.40;75.50;;;;;;4992264;28;20047;-75
2022/06/19 04:01:14;;;;;;;125.38;113.10;;;16.40;75.80;;;;;;4993482;28;20126;-75
2022/06/19 04:03:43;;;;;;;127.13;114.68;;;16.40;76.10;;;;;;4994802;28;20078;-75
2022/06/19 04:06:11;;;;;;;125.90;113.88;;;16.40;76.20;;;;;;4993564;28;20494;-75
2022/06/19 04:08:38;;;;;;;126.75;114.78;;;16.30;76.40;;;;;;4994262;28;20054;-75
2022/06/19 04:11:05;;;;;;;127.15;114.55;;;16.20;76.60;;;;;;4993735;28;20055;-75
2022/06/19 04:13:33;;;;;;;129.77;115.90;;;16.10;76.90;;;;;;4993002;28;20051;-75
2022/06/19 04:16:00;;;;;;;124.38;111.95;;;16.00;77.20;;;;;;4994540;28;20054;-75
2022/06/19 04:18:29;;;;;;;124.38;112.25;;;15.90;78.50;;;;;;4993386;28;20051;-75
2022/06/19 04:20:57;;;;;;;125.53;113.78;;;15.90;79.10;;;;;;4993336;28;20098;-75
2022/06/19 04:23:24;;;;;;;125.22;113.03;;;15.80;79.70;;;;;;4993115;28;20077;-75
2022/06/19 04:25:52;;;;;;;124.55;112.20;;;15.80;80.20;;;;;;4993202;28;20126;-75
2022/06/19 04:28:22;;;;;;;124.93;112.35;;;15.80;80.60;;;;;;4992811;28;20050;-75
2022/06/19 04:30:50;;;;;;;121.68;110.28;;;15.70;80.80;;;;;;4993093;28;20530;-75
2022/06/19 04:33:18;;;;;;;122.70;110.90;;;15.70;81.00;;;;;;4992819;28;20149;-75
2022/06/19 04:35:45;;;;;;;125.38;113.22;;;15.70;81.00;;;;;;4993003;28;20051;-75
2022/06/19 04:38:14;;;;;;;123.65;111.38;;;15.80;81.30;;;;;;4993716;28;20070;-75
2022/06/19 04:40:41;;;;;;;122.25;110.50;;;15.70;81.40;;;;;;4992814;28;20043;-75
2022/06/19 04:43:10;;;;;;;123.35;111.60;;;15.70;81.60;;;;;;4992934;28;20133;-75
2022/06/19 04:45:38;;;;;;;121.88;110.53;;;15.70;81.60;;;;;;5007029;28;20129;-75
2022/06/19 04:48:05;;;;;;;123.70;111.88;;;15.70;81.20;;;;;;5012123;28;20575;-75
2022/06/19 04:50:32;;;;;;;122.00;110.65;;;15.70;80.90;;;;;;5011993;28;20080;-75
2022/06/19 04:52:59;;;;;;;123.03;111.32;;;15.70;80.40;;;;;;5013293;28;20062;-76
2022/06/19 04:55:28;;;;;;;122.97;111.40;;;15.70;79.80;;;;;;5012344;28;20551;-76
2022/06/19 04:58:00;;;;;;;124.30;112.63;;;15.80;79.60;;;;;;5012000;28;20521;-75
2022/06/19 05:00:27;;;;;;;125.97;113.90;;;15.80;79.40;;;;;;5012028;28;20043;-75
2022/06/19 05:02:53;;;;;;;124.18;112.68;;;15.90;79.90;;;;;;5000837;28;20051;-75
2022/06/19 05:05:21;;;;;;;124.43;112.68;;;16.00;79.20;;;;;;5002122;28;20535;-75
2022/06/19 05:07:48;;;;;;;124.95;113.38;;;16.00;78.90;;;;;;4998200;28;20054;-75
2022/06/19 05:10:16;;;;;;;124.60;112.90;;;16.10;78.60;;;;;;4991906;28;20515;-75
2022/06/19 05:12:44;;;;;;;126.85;115.25;;;16.10;78.40;;;;;;4992132;28;20506;-75
2022/06/19 05:15:11;;;;;;;125.53;114.03;;;16.20;77.80;;;;;;4975391;28;20485;-74
2022/06/19 05:17:38;;;;;;;125.10;113.22;;;16.20;77.30;;;;;;4991534;28;20057;-74
2022/06/19 05:20:06;;;;;;;126.32;114.72;;;16.20;77.30;;;;;;5004103;28;20046;-74
2022/06/19 05:22:35;;;;;;;126.13;114.07;;;16.20;77.50;;;;;;5012793;28;20505;-74
2022/06/19 05:25:04;;;;;;;125.32;113.53;;;16.20;77.70;;;;;;5011453;28;20077;-75
2022/06/19 05:27:31;;;;;;;123.47;112.05;;;16.20;77.40;;;;;;5012414;28;20063;-74
2022/06/19 05:30:00;;;;;;;125.35;113.13;;;16.20;77.20;;;;;;5010363;28;20057;-76
2022/06/19 05:32:27;;;;;;;124.15;112.40;;;16.20;77.10;;;;;;5010496;28;20117;-74
2022/06/19 05:34:54;;;;;;;123.80;112.05;;;16.20;77.20;;;;;;5001136;28;20066;-74
2022/06/19 05:37:21;;;;;;;125.53;113.32;;;16.20;77.40;;;;;;4999083;28;20065;-73
2022/06/19 05:39:48;;;;;;;123.07;111.40;;;16.30;77.90;;;;;;4996219;28;20070;-74
2022/06/19 05:42:16;;;;;;;126.25;114.15;;;16.20;78.40;;;;;;4973475;28;20046;-75
2022/06/19 05:44:43;;;;;;;127.13;114.93;;;16.20;78.90;;;;;;4997177;28;20046;-74
2022/06/19 05:47:12;;;;;;;126.18;114.38;;;16.20;79.40;;;;;;5001409;28;20065;-74
2022/06/19 05:49:39;;;;;;;127.60;115.70;;;16.20;79.90;;;;;;5000776;28;20055;-74
2022/06/19 05:52:15;;;;;;;125.43;113.53;;;16.20;80.00;;;;;;5000614;28;20126;-74
2022/06/19 05:54:42;;;;;;;126.70;114.82;;;16.20;79.90;;;;;;4999338;28;20047;-74
2022/06/19 05:57:09;;;;;;;127.10;115.00;;;16.20;79.60;;;;;;4991990;28;20059;-75
2022/06/19 05:59:36;;;;;;;124.78;113.25;;;16.20;79.20;;;;;;4990892;28;20047;-75
2022/06/19 06:02:03;;;;;;;125.30;113.50;;;16.20;78.50;;;;;;4991347;28;20185;-75
2022/06/19 06:04:32;;;;;;;125.03;113.25;;;16.20;77.90;;;;;;4994431;28;20054;-74
2022/06/19 06:06:59;;;;;;;126.03;114.22;;;16.20;77.50;;;;;;5001493;28;20060;-75
2022/06/19 06:09:26;;;;;;;124.75;113.05;;;16.20;77.10;;;;;;4984870;28;20055;-72
2022/06/19 06:11:53;;;;;;;124.72;113.10;;;16.20;76.80;;;;;;4999410;28;20134;-73
2022/06/19 06:14:21;;;;;;;123.97;112.40;;;16.20;76.90;;;;;;4999542;28;20189;-74
2022/06/19 06:16:48;;;;;;;126.43;114.63;;;16.20;76.90;;;;;;5003014;28;20058;-73
2022/06/19 06:19:15;;;;;;;124.22;112.78;;;16.10;76.90;;;;;;5004299;28;20501;-74
2022/06/19 06:21:43;;;;;;;124.63;113.03;;;16.20;77.00;;;;;;5010175;28;20050;-73
2022/06/19 06:24:13;;;;;;;123.40;112.25;;;16.10;77.00;;;;;;5008708;28;20046;-74
2022/06/19 06:26:40;;;;;;;124.40;112.93;;;16.10;77.00;;;;;;5010151;28;20112;-75
2022/06/19 06:29:07;;;;;;;123.88;112.35;;;16.10;77.10;;;;;;5006342;28;20105;-76
2022/06/19 06:31:35;;;;;;;123.55;112.28;;;16.00;77.20;;;;;;4992655;28;20074;-74
2022/06/19 06:34:02;;;;;;;124.05;112.68;;;16.10;77.20;;;;;;5010639;28;20129;-74
2022/06/19 06:36:30;;;;;;;123.35;111.63;;;16.00;77.20;;;;;;5008711;28;20551;-75
2022/06/19 06:38:59;;;;;;;123.15;111.88;;;16.00;77.50;;;;;;5000086;28;20047;-75
2022/06/19 06:41:26;;;;;;;123.82;112.43;;;16.00;77.70;;;;;;4991409;28;20268;-75
2022/06/19 06:43:54;;;;;;;125.03;113.38;;;15.90;78.00;;;;;;4990754;28;20054;-74
2022/06/19 06:46:24;;;;;;;123.97;112.40;;;15.90;78.30;;;;;;4992070;28;20051;-76
2022/06/19 06:48:53;;;;;;;123.57;111.85;;;15.90;78.50;;;;;;4974141;28;20133;-74
2022/06/19 06:51:23;;;;;;;125.10;113.45;;;15.90;78.70;;;;;;4991635;28;20059;-73
2022/06/19 06:53:50;;;;;;;124.28;112.68;;;15.90;78.90;;;;;;4989320;28;20138;-72
2022/06/19 06:56:20;;;;;;;124.07;112.38;;;16.00;79.00;;;;;;4989107;28;20061;-75
2022/06/19 06:58:47;;;;;;;125.28;112.97;;;15.90;79.20;;;;;;4990045;28;20053;-73
2022/06/19 07:01:16;;;;;;;132.35;119.93;;;16.00;79.50;;;;;;4992836;28;20141;-73
2022/06/19 07:03:44;;;;;;;123.43;111.70;;;16.00;79.70;;;;;;4994225;28;20090;-75
2022/06/19 07:06:11;;;;;;;123.05;111.55;;;16.00;79.90;;;;;;4996194;28;20050;-77
2022/06/19 07:08:39;;;;;;;124.32;112.47;;;16.00;80.10;;;;;;5002075;28;20084;-73
2022/06/19 07:11:06;;;;;;;125.43;113.55;;;16.10;80.40;;;;;;5003920;28;20058;-79
2022/06/19 07:13:34;;;;;;;125.05;113.05;;;16.10;80.90;;;;;;5003413;28;20508;-77
2022/06/19 07:16:01;;;;;;;124.10;112.15;;;16.10;81.30;;;;;;5003870;28;20420;-79
2022/06/19 07:18:28;;;;;;;122.85;111.05;;;16.10;81.60;;;;;;5009503;28;20077;-75
2022/06/19 07:20:55;;;;;;;124.25;112.43;;;16.10;81.70;;;;;;5013057;28;20332;-75
2022/06/19 07:23:22;;;;;;;123.43;111.47;;;16.20;82.00;;;;;;4994375;28;20629;-75
2022/06/19 07:25:49;;;;;;;123.40;111.15;;;16.20;82.30;;;;;;4994302;28;20134;-75
2022/06/19 07:28:17;;;;;;;123.25;111.20;;;16.20;82.20;;;;;;4991508;28;20047;-75
2022/06/19 07:30:45;;;;;;;126.90;114.55;;;16.20;82.50;;;;;;5008327;28;20093;-78
2022/06/19 07:33:13;;;;;;;122.55;110.75;;;16.20;82.70;;;;;;5012707;28;20229;-78
2022/06/19 07:35:40;;;;;;;134.18;121.30;;;16.20;82.70;;;;;;4990261;28;20050;-76
2022/06/19 07:38:06;;;;;;;123.28;111.25;;;16.20;82.70;;;;;;5003188;28;20055;-75
2022/06/19 07:40:33;;;;;;;125.03;112.63;;;16.20;82.80;;;;;;5002295;28;20517;-75
2022/06/19 07:43:00;;;;;;;121.55;109.82;;;16.20;82.80;;;;;;5006990;28;20134;-75
2022/06/19 07:45:30;;;;;;;122.60;110.88;;;16.30;82.80;;;;;;5013607;28;20058;-75
2022/06/19 07:50:42;;;;;;;124.10;112.60;;;16.30;82.50;;;;;;5013027;28;20128;-75
2022/06/19 07:53:09;;;;;;;125.78;113.57;;;16.40;82.30;;;;;;5014066;28;20150;-74
2022/06/19 07:55:39;;;;;;;124.88;113.07;;;16.40;82.30;;;;;;5008779;28;20069;-76
2022/06/19 07:58:07;;;;;;;125.93;114.13;;;16.40;82.30;;;;;;5007418;28;20081;-76
2022/06/19 08:00:36;;;;;;;127.78;115.97;;;16.50;82.40;;;;;;4986249;28;20137;-76
2022/06/19 08:03:05;;;;;;;126.05;113.90;;;16.50;82.30;;;;;;4999149;28;20050;-76
2022/06/19 08:05:35;;;;;;;129.13;117.20;;;16.40;82.00;;;;;;5001997;28;20054;-76
2022/06/19 08:08:04;;;;;;;125.85;113.95;;;16.50;82.20;;;;;;5000295;28;20050;-76
2022/06/19 08:10:33;;;;;;;126.80;114.70;;;16.50;82.30;;;;;;4998308;28;20185;-76
2022/06/19 08:13:01;;;;;;;125.53;113.63;;;16.50;82.50;;;;;;5000427;28;20051;-76
2022/06/19 08:15:28;;;;;;;125.25;113.40;;;16.50;82.50;;;;;;5008078;28;20054;-76
2022/06/19 08:17:55;;;;;;;126.43;114.68;;;16.50;82.40;;;;;;5002850;28;20050;-76
2022/06/19 08:20:24;;;;;;;126.50;114.57;;;16.50;82.70;;;;;;4988063;28;20432;-76
2022/06/19 08:22:52;;;;;;;125.85;114.07;;;16.50;82.80;;;;;;5007141;28;20089;-75
2022/06/19 08:25:20;;;;;;;126.60;114.57;;;16.50;82.80;;;;;;5009044;28;20544;-75
2022/06/19 08:27:49;;;;;;;128.38;115.93;;;16.50;83.00;;;;;;5007681;28;20054;-74
2022/06/19 08:30:19;;;;;;;127.13;115.32;;;16.50;83.10;;;;;;5004565;28;20054;-75
2022/06/19 08:32:46;;;;;;;126.82;114.78;;;16.60;82.90;;;;;;5005158;28;20137;-76
2022/06/19 08:35:13;;;;;;;128.18;116.28;;;16.50;83.00;;;;;;5009439;28;20061;-76
2022/06/19 08:37:43;;;;;;;124.70;113.13;;;16.60;83.00;;;;;;4994606;28;20080;-76
2022/06/19 08:40:20;;;;;;;126.22;114.43;;;16.60;82.60;;;;;;5007602;28;20185;-75
2022/06/19 08:42:57;;;;;;;128.98;116.85;;;16.60;82.60;;;;;;5007841;28;20042;-76
2022/06/19 08:45:43;;;;;;;124.55;113.03;;;16.70;82.70;;;;;;5010778;28;20141;-75
2022/06/19 08:48:32;;;;;;;125.70;113.72;;;16.70;82.70;;;;;;5010511;28;20565;-76
2022/06/19 08:51:02;;;;;;;123.45;111.75;;;16.70;83.20;;;;;;4994089;28;20057;-76
2022/06/19 08:53:58;;;;;;;126.65;114.82;;;16.70;83.30;;;;;;5003770;28;20545;-76
2022/06/19 08:56:33;;;;;;;125.03;113.30;;;16.70;82.50;;;;;;5003416;28;20157;-75
2022/06/19 08:59:09;;;;;;;125.13;113.50;;;16.70;83.40;;;;;;5006190;28;20058;-76
2022/06/19 09:01:43;;;;;;;125.57;113.78;;;16.70;83.40;;;;;;5008306;28;20050;-75
2022/06/19 09:07:07;;;;;;;127.55;115.72;;;16.60;84.00;;;;;;5004239;28;20053;-75
2022/06/19 09:09:53;;;;;;;129.25;116.95;;;16.60;84.20;;;;;;5010502;28;20520;-75
2022/06/19 09:12:37;;;;;;;128.40;116.35;;;16.60;84.10;;;;;;5001243;28;20085;-79
2022/06/19 09:15:12;;;;;;;127.68;115.47;;;16.60;84.20;;;;;;5018760;28;20486;-76
2022/06/19 09:17:46;;;;;;;127.95;115.82;;;16.60;84.30;;;;;;4996659;28;20141;-76
2022/06/19 09:20:24;;;;;;;126.70;114.60;;;16.60;84.80;;;;;;5001206;28;20152;-75
2022/06/19 09:23:25;;;;;;;127.47;115.38;;;16.60;85.00;;;;;;5000387;28;20058;-75
2022/06/19 09:25:58;;;;;;;126.32;114.20;;;16.70;85.20;;;;;;4983194;28;20140;-76
2022/06/19 09:28:30;;;;;;;126.25;114.53;;;16.70;85.40;;;;;;5006502;28;20058;-76
2022/06/19 09:31:07;;;;;;;123.22;111.38;;;16.70;85.70;;;;;;4991292;28;20497;-75
2022/06/19 09:33:41;;;;;;;125.57;114.13;;;16.70;86.00;;;;;;5006881;28;20050;-74
2022/06/19 09:36:13;;;;;;;122.93;111.75;;;16.70;86.00;;;;;;5010644;28;20480;-73
2022/06/19 09:38:45;;;;;;;124.90;113.13;;;16.70;86.40;;;;;;5010011;28;20117;-73
2022/06/19 09:41:19;;;;;;;123.90;112.40;;;16.70;86.80;;;;;;5010462;28;20685;-72
2022/06/19 09:43:52;;;;;;;127.82;116.15;;;16.70;87.10;;;;;;5009981;28;20525;-77
2022/06/19 09:46:24;;;;;;;129.88;117.85;;;16.80;87.30;;;;;;5006797;28;20085;-78
2022/06/19 09:48:58;;;;;;;126.53;114.72;;;16.80;87.70;;;;;;5004347;28;20453;-77
2022/06/19 09:51:35;;;;;;;126.10;114.63;;;16.80;87.80;;;;;;5004270;28;20058;-77
2022/06/19 09:54:09;;;;;;;124.40;112.90;;;16.90;87.50;;;;;;5009495;28;20050;-77
2022/06/19 09:56:43;;;;;;;124.07;112.78;;;16.90;86.80;;;;;;5023989;28;20054;-78
2022/06/19 09:59:16;;;;;;;123.32;111.68;;;17.00;86.80;;;;;;5006788;28;20058;-77
2022/06/19 10:01:45;;;;;;;123.72;112.43;;;17.00;86.60;;;;;;5010771;28;20438;-76
2022/06/19 10:04:17;;;;;;;124.25;112.95;;;17.00;86.50;;;;;;4994676;28;20515;-77
2022/06/19 10:06:49;;;;;;;124.95;113.65;;;17.10;86.30;;;;;;5010654;28;20046;-79
2022/06/19 10:09:24;;;;;;;124.63;113.18;;;17.10;86.20;;;;;;5010363;28;20051;-77
2022/06/19 10:11:56;;;;;;;123.30;111.78;;;17.10;86.20;;;;;;5010851;28;20172;-82
2022/06/19 10:14:34;;;;;;;127.60;116.22;;;17.10;86.00;;;;;;5009202;28;20054;-80
2022/06/19 10:17:04;;;;;;;130.90;119.20;;;17.10;85.70;;;;;;5010186;28;20078;-79
2022/06/19 10:19:40;;;;;;;129.63;118.18;;;17.20;85.40;;;;;;5010250;28;20078;-84
2022/06/19 10:22:16;;;;;;;127.53;115.93;;;17.20;85.50;;;;;;5007382;28;20062;-79
2022/06/19 10:24:56;;;;;;;127.68;116.07;;;17.20;85.70;;;;;;5005427;28;20460;-80
2022/06/19 10:27:33;;;;;;;128.45;116.95;;;17.30;85.50;;;;;;5009701;28;20101;-80
2022/06/19 10:30:05;;;;;;;128.93;117.13;;;17.30;85.70;;;;;;4992408;28;20591;-80
2022/06/19 10:32:50;;;;;;;128.45;117.13;;;17.40;85.70;;;;;;5023138;28;20054;-80
2022/06/19 10:35:26;;;;;;;128.00;116.80;;;17.40;85.20;;;;;;5009949;28;20053;-80
2022/06/19 10:38:11;;;;;;;129.18;117.80;;;17.50;85.50;;;;;;5009306;28;20149;-79
2022/06/19 10:40:48;;;;;;;124.88;113.85;;;17.60;85.40;;;;;;5027489;28;20076;-80
2022/06/19 10:43:34;;;;;;;122.85;111.93;;;17.70;85.10;;;;;;5012023;28;20105;-79
2022/06/19 10:46:06;;;;;;;125.65;114.47;;;17.70;84.20;;;;;;5012415;28;20503;-85
2022/06/19 10:48:42;;;;;;;125.93;114.28;;;17.80;83.20;;;;;;5012022;28;20142;-82
2022/06/19 10:51:22;;;;;;;125.47;114.38;;;17.90;82.80;;;;;;4994706;28;20473;-81
2022/06/19 10:54:07;;;;;;;126.38;115.07;;;18.00;82.00;;;;;;5006784;28;20069;-81
2022/06/19 10:56:44;;;;;;;126.57;115.47;;;17.90;81.40;;;;;;5010737;28;20129;-79
2022/06/19 10:59:13;;;;;;;124.28;113.25;;;17.90;80.90;;;;;;5004025;28;20054;-80
2022/06/19 11:04:37;;;;;;;124.07;113.13;;;18.00;81.00;;;;;;5010524;28;20058;-79
2022/06/19 11:07:10;;;;;;;127.55;116.35;;;18.00;81.10;;;;;;5013179;28;20050;-79
2022/06/19 11:09:40;;;;;;;124.28;113.20;;;18.00;81.30;;;;;;5013140;28;20113;-78
2022/06/19 11:12:16;;;;;;;124.28;113.03;;;18.10;80.00;;;;;;5013263;28;20058;-78
2022/06/19 11:14:49;;;;;;;123.78;112.88;;;18.10;79.50;;;;;;5013778;28;20054;-78
2022/06/19 11:17:29;;;;;;;126.70;115.63;;;18.20;79.30;;;;;;4997021;28;20592;-78
2022/06/19 11:19:56;;;;;;;125.63;114.32;;;18.20;78.80;;;;;;5013074;28;20059;-77
2022/06/19 11:22:34;;;;;;;127.72;116.38;;;18.20;78.50;;;;;;5011936;28;20509;-75
2022/06/19 11:25:26;;;;;;;125.53;114.38;;;18.20;78.20;;;;;;5009703;28;20046;-76
2022/06/19 11:27:56;;;;;;;126.25;115.10;;;18.20;78.30;;;;;;5011525;28;20145;-77
2022/06/19 11:30:31;;;;;;;127.38;116.20;;;18.20;78.40;;;;;;5011880;28;20666;-77
2022/06/19 11:32:58;;;;;;;;;;;18.30;78.60;;;;;;5011998;28;20136;-77
2022/06/19 11:35:25;;;;;;;122.65;111.80;;;18.20;78.50;;;;;;5013897;28;20560;-76
2022/06/19 11:37:57;;;;;;;126.03;115.05;;;18.20;78.00;;;;;;5007424;28;20062;-76
2022/06/19 11:40:30;;;;;;;124.78;113.68;;;18.20;77.70;;;;;;5013650;28;20587;-78
2022/06/19 11:42:59;;;;;;;132.90;121.57;;;18.20;77.30;;;;;;5010961;28;20516;-81
2022/06/19 11:45:30;;;;;;;125.28;114.38;;;18.20;77.10;;;;;;5011135;28;20054;-79
2022/06/19 11:48:04;;;;;;;127.40;116.30;;;18.20;77.20;;;;;;5003863;28;20081;-79
2022/06/19 11:50:41;;;;;;;127.00;115.93;;;18.20;77.10;;;;;;5011981;28;20055;-78
2022/06/19 11:53:22;;;;;;;123.97;113.05;;;18.20;76.90;;;;;;5013221;28;20507;-79
2022/06/19 11:55:50;;;;;;;125.25;114.18;;;18.10;76.70;;;;;;4988889;28;20055;-79
2022/06/19 11:58:26;;;;;;;125.85;114.88;;;18.10;76.70;;;;;;4984829;28;20549;-78
2022/06/19 12:01:07;;;;;;;125.43;114.35;;;18.10;76.40;;;;;;5001715;28;20051;-78
2022/06/19 12:03:44;;;;;;;126.22;115.32;;;18.00;76.30;;;;;;5003202;28;20074;-78
2022/06/19 12:06:15;;;;;;;126.75;115.82;;;18.00;76.30;;;;;;5004744;28;20058;-77
2022/06/19 12:08:57;;;;;;;125.00;114.10;;;18.00;75.90;;;;;;5011215;28;20484;-77
2022/06/19 12:11:37;;;;;;;125.13;114.25;;;18.00;76.00;;;;;;5004466;28;20594;-78
2022/06/19 12:14:05;;;;;;;126.40;115.60;;;18.00;76.60;;;;;;5010943;28;20055;-77
2022/06/19 12:16:34;;;;;;;127.20;116.20;;;18.00;76.90;;;;;;5011652;28;20141;-77
2022/06/19 12:19:16;;;;;;;128.27;117.18;;;17.90;77.20;;;;;;5009839;28;20141;-76
2022/06/19 12:21:51;;;;;;;129.38;118.07;;;17.90;77.00;;;;;;5010243;28;20314;-77
2022/06/19 12:24:22;;;;;;;;;;;17.90;77.40;;;;;;5013447;28;20679;-77
2022/06/19 12:26:56;;;;;;;128.80;117.57;;;17.90;77.20;;;;;;4995466;28;20020;-77
2022/06/19 12:29:29;;;;;;;128.32;117.03;;;17.90;78.00;;;;;;5009656;28;20054;-79
2022/06/19 12:32:02;;;;;;;127.78;116.78;;;18.00;79.00;;;;;;5012154;28;20058;-79
2022/06/19 12:34:35;;;;;;;128.70;117.80;;;18.00;79.70;;;;;;5012288;28;20141;-80
2022/06/19 12:37:02;;;;;;;130.75;119.65;;;18.10;79.20;;;;;;5011333;28;20078;-79